createdAt,value
2022-10-05T00:00:22.085Z,98842.63
2022-10-05T00:02:52.303Z,98841.03
2022-10-05T00:05:33.157Z,98840.25
2022-10-05T00:08:23.367Z,98844.25
2022-10-05T00:10:51.524Z,98845.50
2022-10-05T00:13:28.547Z,98843.09
2022-10-05T00:16:10.387Z,98846.50
2022-10-05T00:18:37.664Z,98839.22
2022-10-05T00:21:18.303Z,98835.31
2022-10-05T00:23:44.969Z,98826.75
2022-10-05T00:26:21.632Z,98827.16
2022-10-05T00:28:48.849Z,98831.47
2022-10-05T00:31:22.268Z,98835.34
2022-10-05T00:33:50.004Z,98831.75
2022-10-05T00:36:17.352Z,98832.41
2022-10-05T00:38:44.874Z,98826.22
2022-10-05T00:41:34.297Z,98831.59
2022-10-05T00:44:24.510Z,98822.38
2022-10-05T00:47:17.202Z,98822.38
2022-10-05T00:50:21.966Z,98808.13
2022-10-05T00:53:47.671Z,98803.44
2022-10-05T00:56:31.885Z,98792.50
2022-10-05T00:59:44.610Z,98785.88
2022-10-05T01:02:34.414Z,98784.09
2022-10-05T01:05:15.710Z,98781.88
2022-10-05T01:08:22.340Z,98779.41
2022-10-05T01:11:37.064Z,98777.41
2022-10-05T01:14:13.010Z,98776.63
2022-10-05T01:16:52.052Z,98776.19
2022-10-05T01:20:02.063Z,98779.66
2022-10-05T01:23:22.563Z,98780.56
2022-10-05T01:26:34.070Z,98785.59
2022-10-05T01:29:47.695Z,98774.94
2022-10-05T01:32:43.189Z,98773.47
2022-10-05T01:38:34.428Z,98790.25
2022-10-05T01:41:29.514Z,98787.16
2022-10-05T01:44:23.904Z,98795.88
2022-10-05T01:47:09.034Z,98792.50
2022-10-05T01:50:01.155Z,98794.41
2022-10-05T01:53:05.427Z,98799.13
2022-10-05T01:56:13.242Z,98798.56
2022-10-05T01:59:11.206Z,98801.09
2022-10-05T02:02:01.708Z,98804.38
2022-10-05T02:05:01.607Z,98800.34
2022-10-05T02:07:40.088Z,98791.09
2022-10-05T02:10:23.674Z,98792.09
2022-10-05T02:13:00.596Z,98786.16
2022-10-05T02:16:01.682Z,98788.78
2022-10-05T02:19:08.168Z,98785.41
2022-10-05T02:21:36.593Z,98791.75
2022-10-05T02:24:16.442Z,98782.22
2022-10-05T02:26:43.412Z,98773.28
2022-10-05T02:29:15.711Z,98782.06
2022-10-05T02:31:58.059Z,98776.78
2022-10-05T02:34:24.483Z,98771.31
2022-10-05T02:37:31.222Z,98765.66
2022-10-05T02:40:39.728Z,98762.44
2022-10-05T02:43:45.602Z,98770.06
2022-10-05T02:47:04.499Z,98772.31
2022-10-05T02:50:15.474Z,98759.22
2022-10-05T02:53:11.960Z,98748.09
2022-10-05T02:56:24.028Z,98746.13
2022-10-05T02:59:17.611Z,98735.03
2022-10-05T03:02:14.522Z,98729.78
2022-10-05T03:05:12.567Z,98726.31
2022-10-05T03:07:54.421Z,98724.63
2022-10-05T03:11:07.760Z,98737.81
2022-10-05T03:13:55.812Z,98729.16
2022-10-05T03:16:32.103Z,98719.44
2022-10-05T03:19:22.098Z,98719.00
2022-10-05T03:22:01.410Z,98712.69
2022-10-05T03:25:05.183Z,98716.13
2022-10-05T03:28:06.197Z,98719.91
2022-10-05T03:30:46.657Z,98730.47
2022-10-05T03:33:31.565Z,98719.00
2022-10-05T03:36:25.085Z,98724.63
2022-10-05T03:39:26.176Z,98725.72
2022-10-05T03:42:16.004Z,98724.44
2022-10-05T03:45:25.915Z,98727.47
2022-10-05T03:48:05.627Z,98726.66
2022-10-05T03:50:58.925Z,98731.47
2022-10-05T03:53:41.674Z,98725.16
2022-10-05T03:56:33.303Z,98725.78
2022-10-05T03:59:22.636Z,98722.22
2022-10-05T04:02:02.757Z,98722.13
2022-10-05T04:04:50.897Z,98722.22
2022-10-05T04:08:26.801Z,98731.78
2022-10-05T04:10:59.533Z,98733.25
2022-10-05T04:13:39.510Z,98737.03
2022-10-05T04:16:36.123Z,98740.25
2022-10-05T04:19:24.581Z,98733.19
2022-10-05T04:22:36.339Z,98734.09
2022-10-05T04:25:29.566Z,98729.03
2022-10-05T04:28:18.616Z,98727.03
2022-10-05T04:30:50.455Z,98719.47
2022-10-05T04:33:17.310Z,98718.53
2022-10-05T04:36:10.886Z,98710.06
2022-10-05T04:39:25.377Z,98707.56
2022-10-05T04:42:21.724Z,98708.56
2022-10-05T04:45:14.381Z,98695.81
2022-10-05T04:48:31.376Z,98698.19
2022-10-05T04:51:16.089Z,98694.03
2022-10-05T04:53:56.911Z,98697.34
2022-10-05T04:56:41.318Z,98698.19
2022-10-05T04:59:45.466Z,98701.31
2022-10-05T05:02:42.217Z,98705.00
2022-10-05T05:06:15.213Z,98702.59
2022-10-05T05:09:04.609Z,98711.94
2022-10-05T05:12:12.832Z,98705.38
2022-10-05T05:15:06.580Z,98703.59
2022-10-05T05:17:32.916Z,98715.63
2022-10-05T05:20:49.563Z,98714.03
2022-10-05T05:23:35.909Z,98716.09
2022-10-05T05:26:05.241Z,98717.72
2022-10-05T05:28:50.392Z,98716.31
2022-10-05T05:31:38.921Z,98722.25
2022-10-05T05:34:48.400Z,98723.47
2022-10-05T05:37:48.283Z,98727.88
2022-10-05T05:40:30.219Z,98729.94
2022-10-05T05:43:03.099Z,98730.56
2022-10-05T05:46:00.405Z,98730.09
2022-10-05T05:48:43.589Z,98736.25
2022-10-05T05:51:19.787Z,98736.09
2022-10-05T05:54:24.973Z,98738.09
2022-10-05T05:57:21.517Z,98741.75
2022-10-05T06:00:05.446Z,98738.34
2022-10-05T06:02:48.240Z,98736.88
2022-10-05T06:05:27.006Z,98729.94
2022-10-05T06:07:58.131Z,98736.75
2022-10-05T06:10:47.101Z,98733.75
2022-10-05T06:13:31.330Z,98735.97
2022-10-05T06:16:23.923Z,98738.19
2022-10-05T06:19:05.240Z,98742.28
2022-10-05T06:22:02.483Z,98735.69
2022-10-05T06:24:41.563Z,98732.75
2022-10-05T06:27:37.801Z,98730.19
2022-10-05T06:30:15.620Z,98733.41
2022-10-05T06:32:57.278Z,98738.19
2022-10-05T06:36:12.896Z,98740.38
2022-10-05T06:39:00.509Z,98738.91
2022-10-05T06:42:01.516Z,98732.50
2022-10-05T06:44:49.064Z,98740.28
2022-10-05T06:47:31.044Z,98735.72
2022-10-05T06:50:21.503Z,98733.47
2022-10-05T06:53:34.134Z,98737.25
2022-10-05T06:56:37.371Z,98739.34
2022-10-05T06:59:25.152Z,98739.50
2022-10-05T07:02:25.052Z,98736.28
2022-10-05T07:05:02.076Z,98736.38
2022-10-05T07:07:36.406Z,98730.31
2022-10-05T07:10:27.575Z,98732.22
2022-10-05T07:13:07.708Z,98723.19
2022-10-05T07:16:07.513Z,98718.16
2022-10-05T07:18:53.941Z,98722.22
2022-10-05T07:21:42.156Z,98718.53
2022-10-05T07:24:58.054Z,98724.00
2022-10-05T07:27:30.460Z,98734.25
2022-10-05T07:30:11.422Z,98721.13
2022-10-05T07:33:09.185Z,98722.00
2022-10-05T07:35:57.022Z,98719.16
2022-10-05T07:38:33.618Z,98721.03
2022-10-05T07:41:08.765Z,98720.28
2022-10-05T07:44:02.632Z,98726.94
2022-10-05T07:46:55.356Z,98726.34
2022-10-05T07:49:33.475Z,98723.47
2022-10-05T07:52:06.617Z,98719.09
2022-10-05T07:55:02.167Z,98720.50
2022-10-05T07:57:47.783Z,98714.84
2022-10-05T08:00:20.791Z,98721.22
2022-10-05T08:03:06.965Z,98716.28
2022-10-05T08:05:41.480Z,98722.66
2022-10-05T08:08:12.354Z,98722.47
2022-10-05T08:11:16.899Z,98725.22
2022-10-05T08:14:21.706Z,98716.78
2022-10-05T08:16:54.012Z,98716.47
2022-10-05T08:19:34.145Z,98721.63
2022-10-05T08:22:10.727Z,98721.94
2022-10-05T08:24:51.551Z,98718.69
2022-10-05T08:27:35.271Z,98719.69
2022-10-05T08:30:08.729Z,98718.25
2022-10-05T08:32:47.272Z,98717.06
2022-10-05T08:35:33.894Z,98713.22
2022-10-05T08:38:15.807Z,98712.19
2022-10-05T08:41:12.818Z,98714.66
2022-10-05T08:44:03.396Z,98713.00
2022-10-05T08:46:57.318Z,98711.84
2022-10-05T08:49:42.003Z,98712.72
2022-10-05T08:52:31.175Z,98720.81
2022-10-05T08:55:09.559Z,98723.00
2022-10-05T08:58:07.904Z,98718.00
2022-10-05T09:01:05.792Z,98715.59
2022-10-05T09:04:10.517Z,98713.06
2022-10-05T09:07:14.832Z,98713.53
2022-10-05T09:10:08.056Z,98716.31
2022-10-05T09:13:15.980Z,98705.34
2022-10-05T09:16:18.496Z,98711.81
2022-10-05T09:19:04.526Z,98712.50
2022-10-05T09:21:48.784Z,98719.09
2022-10-05T09:24:46.213Z,98703.16
2022-10-05T09:27:17.814Z,98712.75
2022-10-05T09:30:13.990Z,98701.75
2022-10-05T09:33:13.570Z,98704.75
2022-10-05T09:36:07.451Z,98707.19
2022-10-05T09:38:58.078Z,98705.22
2022-10-05T09:41:42.502Z,98699.13
2022-10-05T09:44:53.255Z,98695.38
2022-10-05T09:47:59.726Z,98694.72
2022-10-05T09:50:40.786Z,98695.00
2022-10-05T09:53:43.126Z,98688.97
2022-10-05T09:56:39.312Z,98683.69
2022-10-05T09:59:36.562Z,98685.84
2022-10-05T10:02:30.712Z,98678.47
2022-10-05T10:05:33.780Z,98682.25
2022-10-05T10:08:13.690Z,98683.53
2022-10-05T10:11:40.499Z,98671.38
2022-10-05T10:14:26.760Z,98662.56
2022-10-05T10:17:01.016Z,98666.47
2022-10-05T10:20:00.410Z,98665.72
2022-10-05T10:22:58.028Z,98655.38
2022-10-05T10:26:03.788Z,98662.72
2022-10-05T10:28:52.231Z,98655.31
2022-10-05T10:31:52.678Z,98655.63
2022-10-05T10:34:56.250Z,98650.16
2022-10-05T10:38:00.251Z,98647.50
2022-10-05T10:40:54.826Z,98642.91
2022-10-05T10:44:18.850Z,98641.38
2022-10-05T10:47:00.447Z,98636.94
2022-10-05T10:50:07.069Z,98635.03
2022-10-05T10:53:28.696Z,98627.94
2022-10-05T10:56:29.406Z,98624.31
2022-10-05T10:59:47.420Z,98623.59
2022-10-05T11:02:37.931Z,98625.56
2022-10-05T11:05:58.519Z,98629.34
2022-10-05T11:09:00.008Z,98629.72
2022-10-05T11:12:00.138Z,98634.50
2022-10-05T11:15:13.305Z,98636.72
2022-10-05T11:18:10.395Z,98640.09
2022-10-05T11:21:04.319Z,98634.50
2022-10-05T11:23:55.269Z,98637.56
2022-10-05T11:26:42.165Z,98627.94
2022-10-05T11:30:05.842Z,98628.75
2022-10-05T11:33:11.219Z,98623.47
2022-10-05T11:36:13.984Z,98620.97
2022-10-05T11:39:11.315Z,98607.25
2022-10-05T11:42:01.806Z,98603.06
2022-10-05T11:45:12.868Z,98588.09
2022-10-05T11:48:23.319Z,98596.47
2022-10-05T11:51:12.013Z,98586.28
2022-10-05T11:53:57.466Z,98588.78
2022-10-05T11:56:39.579Z,98576.09
2022-10-05T11:59:21.178Z,98577.16
2022-10-05T12:02:28.365Z,98575.94
2022-10-05T12:05:21.085Z,98569.66
2022-10-05T12:08:29.416Z,98570.75
2022-10-05T12:11:57.645Z,98565.44
2022-10-05T12:14:57.920Z,98561.81
2022-10-05T12:17:40.629Z,98564.00
2022-10-05T12:20:20.710Z,98551.56
2022-10-05T12:23:10.741Z,98552.81
2022-10-05T12:25:53.797Z,98549.03
2022-10-05T12:28:31.089Z,98555.63
2022-10-05T12:31:17.341Z,98551.25
2022-10-05T12:34:28.247Z,98550.88
2022-10-05T12:37:17.052Z,98541.47
2022-10-05T12:40:06.172Z,98548.47
2022-10-05T12:42:58.316Z,98534.91
2022-10-05T12:45:39.738Z,98526.22
2022-10-05T12:48:52.426Z,98512.75
2022-10-05T12:51:48.024Z,98515.00
2022-10-05T12:54:54.143Z,98510.75
2022-10-05T12:57:49.043Z,98512.75
2022-10-05T13:00:22.874Z,98500.94
2022-10-05T13:03:12.967Z,98517.63
2022-10-05T13:06:31.031Z,98510.75
2022-10-05T13:09:29.013Z,98515.25
2022-10-05T13:12:06.151Z,98513.56
2022-10-05T13:15:06.911Z,98510.19
2022-10-05T13:18:16.724Z,98514.13
2022-10-05T13:20:58.671Z,98504.03
2022-10-05T13:23:58.466Z,98516.91
2022-10-05T13:26:37.613Z,98517.78
2022-10-05T13:29:25.750Z,98513.13
2022-10-05T13:32:00.290Z,98504.88
2022-10-05T13:35:20.616Z,98512.84
2022-10-05T13:38:11.951Z,98511.84
2022-10-05T13:41:17.654Z,98503.22
2022-10-05T13:44:31.911Z,98506.59
2022-10-05T13:47:20.820Z,98507.38
2022-10-05T13:49:55.092Z,98496.88
2022-10-05T13:52:42.226Z,98501.94
2022-10-05T13:55:39.939Z,98494.28
2022-10-05T13:58:15.019Z,98492.31
2022-10-05T14:00:55.731Z,98488.53
2022-10-05T14:03:37.945Z,98488.09
2022-10-05T14:06:29.828Z,98478.56
2022-10-05T14:08:59.951Z,98477.56
2022-10-05T14:11:35.244Z,98476.28
2022-10-05T14:14:10.740Z,98473.38
2022-10-05T14:17:00.085Z,98467.66
2022-10-05T14:19:40.664Z,98468.34
2022-10-05T14:22:24.255Z,98466.13
2022-10-05T14:25:17.042Z,98463.78
2022-10-05T14:28:07.709Z,98468.09
2022-10-05T14:30:34.935Z,98463.44
2022-10-05T14:33:04.434Z,98454.59
2022-10-05T14:35:50.060Z,98447.81
2022-10-05T14:38:26.233Z,98452.16
2022-10-05T14:41:07.876Z,98449.00
2022-10-05T14:43:35.302Z,98450.38
2022-10-05T14:46:25.390Z,98450.00
2022-10-05T14:49:37.305Z,98448.97
2022-10-05T14:52:32.469Z,98437.47
2022-10-05T14:55:06.421Z,98444.03
2022-10-05T14:57:57.760Z,98433.50
2022-10-05T15:00:25.899Z,98436.44
2022-10-05T15:03:31.236Z,98438.00
2022-10-05T15:06:03.632Z,98435.50
2022-10-05T15:09:00.864Z,98439.44
2022-10-05T15:11:50.806Z,98436.69
2022-10-05T15:14:27.010Z,98439.44
2022-10-05T15:17:03.246Z,98439.56
2022-10-05T15:20:10.374Z,98442.94
2022-10-05T15:22:57.011Z,98455.69
2022-10-05T15:25:40.297Z,98455.97
2022-10-05T15:28:23.972Z,98456.25
2022-10-05T15:31:04.154Z,98452.63
2022-10-05T15:33:46.237Z,98449.09
2022-10-05T15:36:35.377Z,98450.38
2022-10-05T15:39:17.699Z,98463.56
2022-10-05T15:42:00.761Z,98462.41
2022-10-05T15:45:11.526Z,98468.03
2022-10-05T15:48:05.044Z,98468.34
2022-10-05T15:51:15.201Z,98463.00
2022-10-05T15:54:35.798Z,98465.53
2022-10-05T15:57:11.939Z,98472.81
2022-10-05T16:00:01.814Z,98477.59
2022-10-05T16:02:54.294Z,98477.59
2022-10-05T16:06:06.373Z,98479.13
2022-10-05T16:08:50.769Z,98483.22
2022-10-05T16:11:51.489Z,98494.38
2022-10-05T16:14:42.173Z,98478.59
2022-10-05T16:17:36.262Z,98484.31
2022-10-05T16:20:25.140Z,98494.09
2022-10-05T16:23:07.908Z,98498.44
2022-10-05T16:26:09.123Z,98503.09
2022-10-05T16:29:11.195Z,98508.78
2022-10-05T16:31:57.551Z,98511.88
2022-10-05T16:34:49.430Z,98514.53
2022-10-05T16:37:54.309Z,98521.09
2022-10-05T16:40:51.116Z,98523.59
2022-10-05T16:43:44.832Z,98526.69
2022-10-05T16:46:36.916Z,98529.59
2022-10-05T16:49:14.404Z,98533.66
2022-10-05T16:51:56.607Z,98547.19
2022-10-05T16:54:45.443Z,98548.16
2022-10-05T16:57:46.358Z,98550.34
2022-10-05T17:00:37.840Z,98542.34
2022-10-05T17:03:39.913Z,98556.31
2022-10-05T17:06:40.955Z,98557.16
2022-10-05T17:09:35.308Z,98562.03
2022-10-05T17:12:45.550Z,98560.25
2022-10-05T17:15:33.058Z,98567.06
2022-10-05T17:18:23.963Z,98569.03
2022-10-05T17:21:51.422Z,98569.03
2022-10-05T17:24:44.928Z,98567.81
2022-10-05T17:27:51.172Z,98568.69
2022-10-05T17:30:37.345Z,98565.63
2022-10-05T17:33:14.095Z,98563.88
2022-10-05T17:36:08.286Z,98573.13
2022-10-05T17:38:34.674Z,98569.03
2022-10-05T17:41:04.037Z,98574.84
2022-10-05T17:43:33.014Z,98580.53
2022-10-05T17:46:03.403Z,98571.84
2022-10-05T17:48:54.187Z,98577.81
2022-10-05T17:51:48.208Z,98580.03
2022-10-05T17:55:08.987Z,98592.59
2022-10-05T17:57:37.098Z,98592.59
2022-10-05T18:00:55.897Z,98597.03
2022-10-05T18:03:44.197Z,98593.56
2022-10-05T18:06:26.201Z,98593.13
2022-10-05T18:09:37.487Z,98591.16
2022-10-05T18:12:16.086Z,98595.22
2022-10-05T18:14:59.608Z,98593.34
2022-10-05T18:17:51.556Z,98586.69
2022-10-05T18:20:23.826Z,98598.88
2022-10-05T18:22:54.131Z,98604.19
2022-10-05T18:25:27.097Z,98602.03
2022-10-05T18:28:34.005Z,98607.47
2022-10-05T18:31:23.454Z,98620.00
2022-10-05T18:34:17.487Z,98619.88
2022-10-05T18:37:50.481Z,98626.69
2022-10-05T18:40:58.174Z,98622.88
2022-10-05T18:43:55.768Z,98626.22
2022-10-05T18:46:43.557Z,98633.41
2022-10-05T18:49:55.237Z,98632.19
2022-10-05T18:52:59.453Z,98637.16
2022-10-05T18:55:47.621Z,98642.72
2022-10-05T18:58:37.342Z,98646.13
2022-10-05T19:01:32.773Z,98654.16
2022-10-05T19:04:18.703Z,98646.91
2022-10-05T19:07:19.130Z,98654.34
2022-10-05T19:10:10.518Z,98661.13
2022-10-05T19:13:04.969Z,98665.25
2022-10-05T19:15:52.435Z,98674.25
2022-10-05T19:18:52.106Z,98679.03
2022-10-05T19:22:09.185Z,98681.97
2022-10-05T19:25:04.311Z,98678.44
2022-10-05T19:27:55.187Z,98683.13
2022-10-05T19:30:33.378Z,98692.81
2022-10-05T19:33:12.987Z,98696.47
2022-10-05T19:36:00.589Z,98701.09
2022-10-05T19:38:58.820Z,98713.97
2022-10-05T19:41:40.706Z,98721.78
2022-10-05T19:44:22.327Z,98709.06
2022-10-05T19:47:05.484Z,98713.47
2022-10-05T19:49:40.093Z,98723.84
2022-10-05T19:52:20.912Z,98721.44
2022-10-05T19:55:00.544Z,98724.00
2022-10-05T19:57:27.186Z,98724.72
2022-10-05T19:59:58.166Z,98731.97
2022-10-05T20:02:27.928Z,98719.09
2022-10-05T20:05:07.010Z,98719.69
2022-10-05T20:07:34.259Z,98722.50
2022-10-05T20:10:29.582Z,98721.53
2022-10-05T20:13:02.817Z,98721.44
2022-10-05T20:15:54.421Z,98719.03
2022-10-05T20:18:56.272Z,98728.34
2022-10-05T20:21:43.842Z,98741.50
2022-10-05T20:24:23.475Z,98742.34
2022-10-05T20:27:04.716Z,98750.31
2022-10-05T20:29:37.935Z,98758.19
2022-10-05T20:32:14.001Z,98756.69
2022-10-05T20:34:43.283Z,98765.09
2022-10-05T20:37:13.202Z,98761.88
2022-10-05T20:39:40.952Z,98756.97
2022-10-05T20:42:09.723Z,98764.66
2022-10-05T20:44:37.339Z,98771.75
2022-10-05T20:47:08.610Z,98773.47
2022-10-05T20:49:37.512Z,98781.03
2022-10-05T20:52:06.327Z,98779.50
2022-10-05T20:54:32.945Z,98781.19
2022-10-05T20:56:59.439Z,98781.03
2022-10-05T20:59:26.493Z,98785.69
2022-10-05T21:01:53.022Z,98793.09
2022-10-05T21:04:26.336Z,98793.94
2022-10-05T21:06:54.094Z,98792.97
2022-10-05T21:09:21.402Z,98791.28
2022-10-05T21:11:51.483Z,98797.16
2022-10-05T21:14:18.097Z,98811.00
2022-10-05T21:16:45.760Z,98790.84
2022-10-05T21:19:14.402Z,98787.19
2022-10-05T21:21:44.087Z,98802.03
2022-10-05T21:24:13.571Z,98790.53
2022-10-05T21:26:42.049Z,98788.84
2022-10-05T21:29:12.728Z,98794.03
2022-10-05T21:31:40.211Z,98788.84
2022-10-05T21:34:07.405Z,98796.69
2022-10-05T21:36:34.789Z,98790.25
2022-10-05T21:39:01.420Z,98806.59
2022-10-05T21:41:27.900Z,98803.53
2022-10-05T21:43:54.581Z,98808.75
2022-10-05T21:46:26.492Z,98809.44
2022-10-05T21:48:54.552Z,98821.38
2022-10-05T21:51:25.351Z,98810.28
2022-10-05T21:54:01.967Z,98820.53
2022-10-05T21:56:35.434Z,98824.59
2022-10-05T21:59:06.216Z,98829.19
2022-10-05T22:01:35.816Z,98822.88
2022-10-05T22:04:04.633Z,98832.56
2022-10-05T22:06:31.633Z,98835.78
2022-10-05T22:08:59.447Z,98837.88
2022-10-05T22:11:27.071Z,98831.44
2022-10-05T22:13:53.680Z,98838.31
2022-10-05T22:16:23.605Z,98843.22
2022-10-05T22:18:50.503Z,98851.91
2022-10-05T22:21:17.421Z,98841.41
2022-10-05T22:23:45.990Z,98850.22
2022-10-05T22:26:16.612Z,98852.03
2022-10-05T22:28:44.194Z,98857.78
2022-10-05T22:31:12.631Z,98867.00
2022-10-05T22:33:40.774Z,98845.72
2022-10-05T22:36:09.349Z,98857.75
2022-10-05T22:38:35.911Z,98847.78
2022-10-05T22:41:02.760Z,98866.56
2022-10-05T22:43:29.305Z,98849.53
2022-10-05T22:45:56.193Z,98853.81
2022-10-05T22:48:22.913Z,98858.75
2022-10-05T22:50:49.418Z,98868.25
2022-10-05T22:53:16.149Z,98864.72
2022-10-05T22:55:42.566Z,98867.94
2022-10-05T22:58:09.068Z,98876.34
2022-10-05T23:00:57.150Z,98872.59
2022-10-05T23:03:22.821Z,98880.41
2022-10-05T23:06:00.547Z,98875.34
2022-10-05T23:08:27.511Z,98875.59
2022-10-05T23:10:54.372Z,98882.06
2022-10-05T23:13:22.318Z,98884.47
2022-10-05T23:15:48.990Z,98880.19
2022-10-05T23:18:16.574Z,98890.31
2022-10-05T23:20:43.071Z,98895.09
2022-10-05T23:23:09.609Z,98894.38
2022-10-05T23:25:36.594Z,98906.97
2022-10-05T23:28:03.058Z,98930.50
2022-10-05T23:30:29.627Z,98930.16
2022-10-05T23:32:56.146Z,98955.66
2022-10-05T23:35:22.779Z,98949.19
2022-10-05T23:37:49.208Z,98946.91
2022-10-05T23:40:15.678Z,98992.06
2022-10-05T23:42:42.607Z,98986.75
2022-10-05T23:45:11.745Z,99020.59
2022-10-05T23:47:40.089Z,99015.50
2022-10-05T23:50:09.053Z,99028.75
2022-10-05T23:52:36.755Z,99038.34
2022-10-05T23:55:05.352Z,99046.47
2022-10-05T23:57:32.285Z,99035.47
2022-10-05T23:59:58.769Z,99033.53
